Time;durP1;ratioP1;P1;durP2;ratioP2;P2;SDS_P1;SDS_P2;PMS_P1;PMS_P2;Temp;Humidity;BMP_temperature;BMP_pressure;BME280_temperature;BME280_humidity;BME280_pressure;Samples;Min_cycle;Max_cycle;Signal;HPM_P1;HPM_P2
2022/04/09 00:02:24;;;;;;;10.63;0.63;;;4.70;99.90;;;;;;5034392;28;20025;-77
2022/04/09 00:04:50;;;;;;;7.63;0.15;;;4.70;99.90;;;;;;5048605;28;20021;-77
2022/04/09 00:07:16;;;;;;;3.70;0.20;;;4.70;99.90;;;;;;5054197;28;20021;-76
2022/04/09 00:09:41;;;;;;;3.45;0.00;;;4.70;99.90;;;;;;5036091;28;20086;-76
2022/04/09 00:12:08;;;;;;;5.95;0.45;;;4.80;99.90;;;;;;5053761;28;20029;-76
2022/04/09 00:14:34;;;;;;;6.18;0.15;;;4.80;99.90;;;;;;5042262;28;20021;-76
2022/04/09 00:17:00;;;;;;;5.63;0.20;;;4.90;99.90;;;;;;5016321;28;20029;-76
2022/04/09 00:19:25;;;;;;;4.35;0.17;;;4.90;99.90;;;;;;5033674;28;20025;-76
2022/04/09 00:21:51;;;;;;;6.00;0.03;;;4.80;99.90;;;;;;5033891;28;20463;-76
2022/04/09 00:24:17;;;;;;;5.78;0.17;;;4.90;99.90;;;;;;5034219;28;20394;-76
2022/04/09 00:26:42;;;;;;;6.60;0.15;;;4.90;99.90;;;;;;5034439;28;20075;-76
2022/04/09 00:29:08;;;;;;;10.90;0.55;;;5.00;99.90;;;;;;5016109;28;20033;-76
2022/04/09 00:31:34;;;;;;;7.55;0.35;;;5.20;99.90;;;;;;5015876;28;20112;-76
2022/04/09 00:34:00;;;;;;;5.80;0.05;;;5.30;99.90;;;;;;5021952;28;20111;-77
2022/04/09 00:36:26;;;;;;;4.95;0.10;;;5.30;99.90;;;;;;5053451;28;20028;-77
2022/04/09 00:38:51;;;;;;;3.55;0.10;;;5.30;99.90;;;;;;5035680;28;20017;-77
2022/04/09 00:41:17;;;;;;;8.82;0.55;;;5.20;99.90;;;;;;5053756;28;20025;-76
2022/04/09 00:43:43;;;;;;;4.88;0.15;;;5.10;99.90;;;;;;5052542;28;20047;-77
2022/04/09 00:46:13;;;;;;;5.03;0.17;;;5.00;99.90;;;;;;5035821;28;20021;-76
2022/04/09 00:48:41;;;;;;;3.70;0.38;;;5.00;99.90;;;;;;5053654;28;20021;-76
2022/04/09 00:51:07;;;;;;;10.77;0.40;;;4.90;99.90;;;;;;5035591;28;20021;-77
2022/04/09 00:53:35;;;;;;;6.35;0.10;;;4.90;99.90;;;;;;5051584;28;20385;-75
2022/04/09 00:56:19;;;;;;;2.50;0.45;;;4.80;99.90;;;;;;5046698;28;20057;-75
2022/04/09 00:58:55;;;;;;;7.30;0.50;;;4.70;99.90;;;;;;5035734;28;20013;-75
2022/04/09 01:01:26;;;;;;;8.18;0.10;;;4.70;99.90;;;;;;5053736;28;20497;-75
2022/04/09 01:03:53;;;;;;;9.80;0.13;;;4.60;99.90;;;;;;5052558;28;20030;-75
2022/04/09 01:06:19;;;;;;;5.25;0.20;;;4.50;99.90;;;;;;5037381;28;20045;-75
2022/04/09 01:08:45;;;;;;;7.10;0.30;;;4.50;99.90;;;;;;5019583;28;20053;-75
2022/04/09 01:11:12;;;;;;;9.15;0.50;;;4.50;99.90;;;;;;5019807;28;20022;-75
2022/04/09 01:13:38;;;;;;;11.80;0.20;;;4.40;99.90;;;;;;5039003;28;20021;-75
2022/04/09 01:16:05;;;;;;;3.90;0.38;;;4.40;99.90;;;;;;5057501;28;20028;-75
2022/04/09 01:18:31;;;;;;;7.07;0.22;;;4.40;99.90;;;;;;5037467;28;20017;-75
2022/04/09 01:20:58;;;;;;;8.05;1.35;;;4.40;99.90;;;;;;5038958;28;20025;-75
2022/04/09 01:23:25;;;;;;;7.95;0.52;;;4.50;99.90;;;;;;5056554;28;20048;-75
2022/04/09 01:25:50;;;;;;;11.15;0.10;;;4.60;99.90;;;;;;5037602;28;20030;-74
2022/04/09 01:28:16;;;;;;;7.35;0.40;;;4.80;99.90;;;;;;5037044;28;20371;-75
2022/04/09 01:30:42;;;;;;;3.35;0.15;;;5.00;99.90;;;;;;5036728;28;20028;-75
2022/04/09 01:33:17;;;;;;;5.15;0.08;;;4.90;99.90;;;;;;5036884;28;20033;-75
2022/04/09 01:35:43;;;;;;;7.10;0.38;;;4.90;99.90;;;;;;5051032;28;20022;-75
2022/04/09 01:38:08;;;;;;;4.05;0.40;;;4.80;99.90;;;;;;5036809;28;20432;-75
2022/04/09 01:40:34;;;;;;;8.20;0.47;;;4.70;99.90;;;;;;5036759;28;20025;-75
2022/04/09 01:43:00;;;;;;;7.80;0.05;;;4.60;99.90;;;;;;5018826;28;20022;-75
2022/04/09 01:45:27;;;;;;;8.70;0.45;;;4.60;99.90;;;;;;5019215;28;20025;-75
2022/04/09 01:47:53;;;;;;;8.52;0.17;;;4.60;99.90;;;;;;5056415;28;20485;-74
2022/04/09 01:50:19;;;;;;;9.02;0.55;;;4.70;99.90;;;;;;5056485;28;20074;-75
2022/04/09 01:52:44;;;;;;;4.40;0.30;;;4.80;99.90;;;;;;5038600;28;20029;-74
2022/04/09 01:55:10;;;;;;;7.50;0.45;;;4.70;99.90;;;;;;5056318;28;20474;-74
2022/04/09 01:57:36;;;;;;;4.45;0.00;;;4.60;99.90;;;;;;5037829;28;20029;-75
2022/04/09 02:00:07;;;;;;;3.45;0.00;;;4.60;99.90;;;;;;5036533;28;20498;-75
2022/04/09 02:02:32;;;;;;;1.70;0.10;;;4.50;99.90;;;;;;5018513;28;20124;-75
2022/04/09 02:04:58;;;;;;;4.38;0.00;;;4.40;99.90;;;;;;5051328;28;20061;-75
2022/04/09 02:07:24;;;;;;;5.55;0.00;;;4.30;99.90;;;;;;5038897;28;20017;-75
2022/04/09 02:09:50;;;;;;;9.23;0.00;;;4.20;99.90;;;;;;5056281;28;20032;-75
2022/04/09 02:12:15;;;;;;;8.55;0.20;;;4.30;99.90;;;;;;5056277;28;20021;-75
2022/04/09 02:14:41;;;;;;;4.78;0.43;;;4.30;99.90;;;;;;5043004;28;20026;-75
2022/04/09 02:17:07;;;;;;;2.50;0.13;;;4.40;99.90;;;;;;5036009;28;20486;-75
2022/04/09 02:19:33;;;;;;;10.30;0.00;;;4.40;99.90;;;;;;5035859;28;20433;-75
2022/04/09 02:21:58;;;;;;;6.32;0.55;;;4.40;99.90;;;;;;5018254;28;20032;-75
2022/04/09 02:24:24;;;;;;;5.70;0.00;;;4.40;99.90;;;;;;5019623;28;20072;-75
2022/04/09 02:26:49;;;;;;;4.05;0.30;;;4.30;99.90;;;;;;5035905;28;20493;-75
2022/04/09 02:29:15;;;;;;;4.07;0.00;;;4.30;99.90;;;;;;5036583;28;20017;-75
2022/04/09 02:31:40;;;;;;;3.58;0.00;;;4.30;99.90;;;;;;5018438;28;20025;-75
2022/04/09 02:34:06;;;;;;;3.05;0.10;;;4.30;99.90;;;;;;5024388;28;20526;-75
2022/04/09 02:36:32;;;;;;;5.47;0.00;;;4.30;99.90;;;;;;5056010;28;20359;-75
2022/04/09 02:38:58;;;;;;;7.13;0.75;;;4.30;99.90;;;;;;5056129;28;20082;-75
2022/04/09 02:41:24;;;;;;;6.95;0.13;;;4.30;99.90;;;;;;5055833;28;20541;-75
2022/04/09 02:43:50;;;;;;;10.20;0.10;;;4.40;99.90;;;;;;5050921;28;20029;-75
2022/04/09 02:46:16;;;;;;;5.40;0.22;;;4.40;99.90;;;;;;5035847;28;20021;-75
2022/04/09 02:48:42;;;;;;;3.80;0.00;;;4.40;99.90;;;;;;5017954;28;20022;-75
2022/04/09 02:51:08;;;;;;;4.13;0.10;;;4.50;99.90;;;;;;5017287;28;20033;-75
2022/04/09 02:53:33;;;;;;;8.20;0.77;;;4.50;99.90;;;;;;5036631;28;20405;-75
2022/04/09 02:55:59;;;;;;;6.80;0.10;;;4.40;99.90;;;;;;5037310;28;20021;-75
2022/04/09 02:58:25;;;;;;;5.13;0.10;;;4.30;99.90;;;;;;5037277;28;20023;-74
2022/04/09 03:00:50;;;;;;;2.85;0.00;;;4.20;99.90;;;;;;5053636;28;20112;-74
2022/04/09 03:03:16;;;;;;;3.60;0.65;;;4.20;99.90;;;;;;5017336;28;20032;-73
2022/04/09 03:05:41;;;;;;;0.85;0.00;;;4.10;99.90;;;;;;5035468;28;20030;-74
2022/04/09 03:08:07;;;;;;;5.18;0.20;;;4.00;99.90;;;;;;5017304;28;20028;-74
2022/04/09 03:10:33;;;;;;;3.88;0.20;;;3.90;99.90;;;;;;5035375;28;20060;-74
2022/04/09 03:12:58;;;;;;;5.85;0.35;;;3.90;99.90;;;;;;5052734;28;20024;-74
2022/04/09 03:15:26;;;;;;;11.55;0.85;;;3.90;99.90;;;;;;5037021;28;20066;-74
2022/04/09 03:17:52;;;;;;;4.50;0.10;;;4.00;99.90;;;;;;5055218;28;20022;-74
2022/04/09 03:20:17;;;;;;;7.53;0.38;;;4.20;99.90;;;;;;5054545;28;20039;-75
2022/04/09 03:22:49;;;;;;;12.88;1.75;;;4.20;99.90;;;;;;5021233;28;20033;-74
2022/04/09 03:25:15;;;;;;;10.07;0.57;;;4.30;99.90;;;;;;5034694;28;20022;-75
2022/04/09 03:27:41;;;;;;;9.75;0.30;;;4.30;99.90;;;;;;5016487;28;20021;-75
2022/04/09 03:30:08;;;;;;;8.43;0.45;;;4.30;99.90;;;;;;5034367;28;20044;-75
2022/04/09 03:32:40;;;;;;;2.40;0.03;;;4.30;99.90;;;;;;5047765;28;20421;-75
2022/04/09 03:35:06;;;;;;;9.43;0.10;;;4.30;99.90;;;;;;5054848;28;20028;-75
2022/04/09 03:37:35;;;;;;;8.50;0.10;;;4.30;99.90;;;;;;5036570;28;20025;-75
2022/04/09 03:40:04;;;;;;;1.80;0.00;;;4.30;99.90;;;;;;5054384;28;20059;-75
2022/04/09 03:42:30;;;;;;;4.35;0.28;;;4.30;99.90;;;;;;5035803;28;20029;-75
2022/04/09 03:44:55;;;;;;;8.25;1.45;;;4.20;99.90;;;;;;5054312;28;20462;-75
2022/04/09 03:47:21;;;;;;;11.13;0.03;;;4.30;99.90;;;;;;5054272;28;20071;-75
2022/04/09 03:49:46;;;;;;;6.78;0.40;;;4.20;99.90;;;;;;5054189;28;20028;-75
2022/04/09 03:52:12;;;;;;;3.22;0.73;;;4.10;99.90;;;;;;5051099;28;20025;-75
2022/04/09 03:54:38;;;;;;;10.82;0.32;;;4.10;99.90;;;;;;5016412;28;20018;-75
2022/04/09 03:57:04;;;;;;;12.02;0.40;;;4.10;99.90;;;;;;5034345;28;20033;-75
2022/04/09 03:59:29;;;;;;;5.25;0.20;;;4.00;99.90;;;;;;5034168;28;20386;-75
2022/04/09 04:01:57;;;;;;;4.53;0.00;;;3.90;99.90;;;;;;5034002;28;20112;-76
2022/04/09 04:04:26;;;;;;;3.85;0.13;;;3.80;99.90;;;;;;5043071;28;20129;-75
2022/04/09 04:06:51;;;;;;;4.03;0.00;;;3.80;99.90;;;;;;5034558;28;20026;-75
2022/04/09 04:09:17;;;;;;;3.25;0.10;;;3.70;99.90;;;;;;5016370;28;20176;-75
2022/04/09 04:11:43;;;;;;;4.63;0.08;;;3.70;99.90;;;;;;5034157;28;20065;-75
2022/04/09 04:14:10;;;;;;;5.63;0.38;;;3.80;99.90;;;;;;5023521;28;20035;-75
2022/04/09 04:16:35;;;;;;;7.25;0.22;;;3.70;99.90;;;;;;5053848;28;20377;-75
2022/04/09 04:19:01;;;;;;;10.57;1.45;;;3.70;99.90;;;;;;5053617;28;20027;-75
2022/04/09 04:21:27;;;;;;;5.63;0.50;;;3.70;99.90;;;;;;5053525;28;20032;-75
2022/04/09 04:23:52;;;;;;;6.43;0.10;;;3.70;99.90;;;;;;5052793;28;20021;-75
2022/04/09 04:26:18;;;;;;;8.43;0.55;;;3.60;99.90;;;;;;5053795;28;20060;-74
2022/04/09 04:28:48;;;;;;;5.10;0.35;;;3.60;99.90;;;;;;5054176;28;20401;-74
2022/04/09 04:31:16;;;;;;;5.90;0.00;;;3.60;99.90;;;;;;5054300;28;20029;-76
2022/04/09 04:33:42;;;;;;;6.43;0.03;;;3.60;99.90;;;;;;5031924;28;20040;-75
2022/04/09 04:36:08;;;;;;;6.68;0.15;;;3.60;99.90;;;;;;5033716;28;20471;-74
2022/04/09 04:38:33;;;;;;;8.60;0.40;;;3.60;99.90;;;;;;5039278;28;20057;-74
2022/04/09 04:41:00;;;;;;;2.22;0.00;;;3.80;99.90;;;;;;5022627;28;20017;-74
2022/04/09 04:43:26;;;;;;;4.28;0.00;;;3.90;99.90;;;;;;5040636;28;20470;-74
2022/04/09 04:45:51;;;;;;;4.15;0.00;;;4.00;99.90;;;;;;5044976;28;20032;-74
2022/04/09 04:48:20;;;;;;;6.85;0.00;;;4.10;99.90;;;;;;5042193;28;20028;-74
2022/04/09 04:50:46;;;;;;;8.38;0.10;;;4.10;99.90;;;;;;5042485;28;20024;-75
2022/04/09 04:53:12;;;;;;;7.53;0.32;;;4.10;99.90;;;;;;5060417;28;20390;-75
2022/04/09 04:55:37;;;;;;;4.40;0.40;;;4.00;99.90;;;;;;5040867;28;20029;-75
2022/04/09 04:58:03;;;;;;;10.93;0.57;;;4.00;99.90;;;;;;5040116;28;20482;-75
2022/04/09 05:00:29;;;;;;;7.32;0.43;;;4.00;99.90;;;;;;5040105;28;20104;-75
2022/04/09 05:02:55;;;;;;;3.50;0.03;;;4.20;99.90;;;;;;5040553;28;20017;-75
2022/04/09 05:05:21;;;;;;;10.35;0.50;;;4.00;99.90;;;;;;5056736;28;20029;-75
2022/04/09 05:07:49;;;;;;;6.82;0.35;;;4.00;99.90;;;;;;5043258;28;20381;-75
2022/04/09 05:10:17;;;;;;;9.18;0.10;;;4.00;99.90;;;;;;5039905;28;20022;-75
2022/04/09 05:12:46;;;;;;;3.53;0.00;;;4.00;99.90;;;;;;5039917;28;20075;-75
2022/04/09 05:15:14;;;;;;;5.90;0.25;;;4.00;99.90;;;;;;5054837;28;20020;-75
2022/04/09 05:17:40;;;;;;;7.05;0.68;;;4.00;99.90;;;;;;5041953;28;20027;-75
2022/04/09 05:20:08;;;;;;;10.05;0.20;;;4.00;99.90;;;;;;5060313;28;20103;-75
2022/04/09 05:22:36;;;;;;;6.68;0.50;;;4.00;99.90;;;;;;5059923;28;20094;-75
2022/04/09 05:25:02;;;;;;;2.60;0.17;;;4.00;99.90;;;;;;5028847;28;20470;-75
2022/04/09 05:27:28;;;;;;;10.60;0.43;;;4.10;99.90;;;;;;5039719;28;20029;-75
2022/04/09 05:29:55;;;;;;;10.18;0.20;;;4.20;99.90;;;;;;5037503;28;20020;-75
2022/04/09 05:32:20;;;;;;;8.40;0.60;;;4.20;99.90;;;;;;5041812;28;20091;-75
2022/04/09 05:34:46;;;;;;;7.38;0.10;;;4.30;99.90;;;;;;5060237;28;20478;-75
2022/04/09 05:37:12;;;;;;;2.72;0.00;;;4.40;99.90;;;;;;5059973;28;20081;-75
2022/04/09 05:39:37;;;;;;;3.78;0.30;;;4.50;99.90;;;;;;5029789;28;20498;-75
2022/04/09 05:42:04;;;;;;;4.75;0.80;;;4.50;99.90;;;;;;5039771;28;20018;-75
2022/04/09 05:44:30;;;;;;;9.05;0.20;;;4.50;99.90;;;;;;5039689;28;20029;-75
2022/04/09 05:46:56;;;;;;;4.15;0.00;;;4.50;99.90;;;;;;5039637;28;20493;-75
2022/04/09 05:49:22;;;;;;;10.82;0.80;;;4.50;99.90;;;;;;5027903;28;20029;-75
2022/04/09 05:51:48;;;;;;;12.85;0.50;;;4.60;99.90;;;;;;5056633;28;20100;-75
2022/04/09 05:54:13;;;;;;;8.60;0.47;;;4.60;99.90;;;;;;5056644;28;20551;-75
2022/04/09 05:56:39;;;;;;;9.70;0.50;;;4.60;99.90;;;;;;5056512;28;20025;-75
2022/04/09 05:59:05;;;;;;;3.30;0.70;;;4.70;99.90;;;;;;5055977;28;20394;-75
2022/04/09 06:01:31;;;;;;;5.57;0.30;;;4.70;99.90;;;;;;5056094;28;20056;-75
2022/04/09 06:03:57;;;;;;;4.43;0.25;;;4.70;99.90;;;;;;5031204;28;20033;-75
2022/04/09 06:06:23;;;;;;;7.97;0.20;;;4.70;99.90;;;;;;5036723;28;20025;-75
2022/04/09 06:08:48;;;;;;;8.35;0.03;;;4.80;99.90;;;;;;5036481;28;20220;-75
2022/04/09 06:11:17;;;;;;;8.38;0.30;;;4.80;99.90;;;;;;5036441;28;20491;-75
2022/04/09 06:13:43;;;;;;;9.90;0.10;;;4.90;99.90;;;;;;5022340;28;20103;-75
2022/04/09 06:16:09;;;;;;;7.20;0.28;;;4.90;99.90;;;;;;5038308;28;20429;-75
2022/04/09 06:18:38;;;;;;;10.05;0.30;;;5.00;99.90;;;;;;5038076;28;20397;-75
2022/04/09 06:21:04;;;;;;;;;;;5.10;99.90;;;;;;5055936;28;20076;-75
2022/04/09 06:23:30;;;;;;;6.50;0.38;;;5.20;99.90;;;;;;5042919;28;19917;-75
2022/04/09 06:25:55;;;;;;;6.28;0.30;;;5.40;99.90;;;;;;5035772;28;20146;-75
2022/04/09 06:28:21;;;;;;;9.07;0.32;;;5.60;99.90;;;;;;5021901;28;20104;-75
2022/04/09 06:30:46;;;;;;;7.20;0.70;;;5.60;99.90;;;;;;5055914;28;20021;-75
2022/04/09 06:33:12;;;;;;;3.70;1.08;;;5.70;99.90;;;;;;5055762;28;20025;-75
2022/04/09 06:35:38;;;;;;;5.35;0.05;;;5.90;99.90;;;;;;5037695;28;20017;-75
2022/04/09 06:38:03;;;;;;;14.50;2.60;;;6.10;99.90;;;;;;5054914;28;20064;-75
2022/04/09 06:40:29;;;;;;;8.30;0.17;;;6.30;99.90;;;;;;5050906;28;20025;-75
2022/04/09 06:42:56;;;;;;;10.60;0.20;;;6.40;99.90;;;;;;5055784;28;20079;-75
2022/04/09 06:45:21;;;;;;;9.65;0.40;;;6.70;99.90;;;;;;5055878;28;20029;-75
2022/04/09 06:47:47;;;;;;;5.97;0.30;;;6.90;99.90;;;;;;5056131;28;20205;-75
2022/04/09 06:50:14;;;;;;;2.13;0.47;;;7.00;99.90;;;;;;5021298;28;20037;-75
2022/04/09 06:52:40;;;;;;;10.70;0.73;;;7.20;99.90;;;;;;5037443;28;20054;-75
2022/04/09 06:55:09;;;;;;;5.45;0.08;;;7.00;99.90;;;;;;5055417;28;20255;-75
2022/04/09 06:57:38;;;;;;;3.88;0.00;;;6.70;99.90;;;;;;5055462;28;20013;-75
2022/04/09 07:00:07;;;;;;;3.42;0.00;;;6.50;99.90;;;;;;5041190;28;20025;-75
2022/04/09 07:02:33;;;;;;;5.05;0.10;;;6.30;99.90;;;;;;5034744;28;20021;-75
2022/04/09 07:04:59;;;;;;;2.50;0.05;;;6.20;99.90;;;;;;5034899;28;20056;-75
2022/04/09 07:07:28;;;;;;;2.78;0.00;;;6.10;99.90;;;;;;5035981;28;20382;-75
2022/04/09 07:10:08;;;;;;;;;;;6.00;99.90;;;;;;5032978;28;20025;-75
2022/04/09 07:12:34;;;;;;;6.32;0.10;;;5.90;99.90;;;;;;5055088;28;19912;-75
2022/04/09 07:14:59;;;;;;;2.53;0.00;;;5.90;99.90;;;;;;5028122;28;20375;-75
2022/04/09 07:17:26;;;;;;;6.35;0.00;;;5.90;99.90;;;;;;5034804;28;20022;-75
2022/04/09 07:19:56;;;;;;;2.33;0.00;;;6.00;99.90;;;;;;5054547;22;20060;-74
2022/04/09 07:22:22;;;;;;;3.05;0.30;;;6.20;99.90;;;;;;5069480;28;20028;-74
2022/04/09 07:24:53;;;;;;;2.80;0.00;;;6.30;99.90;;;;;;5074717;28;20027;-74
2022/04/09 07:27:20;;;;;;;2.20;0.00;;;6.70;99.90;;;;;;5074903;28;20028;-74
2022/04/09 07:29:46;;;;;;;4.38;0.40;;;6.30;99.90;;;;;;5074909;28;20431;-74
2022/04/09 07:32:12;;;;;;;4.68;0.20;;;6.40;99.90;;;;;;5059214;28;20024;-74
2022/04/09 07:34:37;;;;;;;2.63;0.32;;;6.40;99.90;;;;;;5054751;28;20389;-74
2022/04/09 07:37:03;;;;;;;3.20;0.00;;;6.50;99.90;;;;;;5036594;28;20025;-74
2022/04/09 07:39:29;;;;;;;3.25;0.20;;;6.60;99.90;;;;;;5054704;28;20013;-75
2022/04/09 07:41:54;;;;;;;3.88;0.35;;;6.80;99.90;;;;;;5052985;28;20113;-75
2022/04/09 07:44:22;;;;;;;5.00;0.00;;;6.80;99.90;;;;;;5074562;28;20024;-75
2022/04/09 07:46:48;;;;;;;1.98;0.00;;;6.80;99.90;;;;;;5056882;28;20020;-75
2022/04/09 07:49:14;;;;;;;4.85;0.35;;;7.30;99.90;;;;;;5074749;28;20024;-75
2022/04/09 07:51:40;;;;;;;2.45;0.68;;;7.20;99.90;;;;;;5060191;28;20086;-75
2022/04/09 07:54:05;;;;;;;2.97;0.00;;;7.40;99.90;;;;;;5036404;28;20056;-75
2022/04/09 07:56:31;;;;;;;8.40;0.40;;;7.50;99.90;;;;;;5036467;28;20020;-75
2022/04/09 07:58:57;;;;;;;6.80;0.32;;;7.70;99.90;;;;;;5062210;28;20025;-74
2022/04/09 08:01:22;;;;;;;4.72;0.35;;;7.90;99.90;;;;;;5074017;28;20366;-74
2022/04/09 08:03:49;;;;;;;4.10;0.00;;;8.00;99.90;;;;;;5068223;28;20078;-75
2022/04/09 08:06:15;;;;;;;1.73;0.17;;;8.30;99.90;;;;;;5035962;28;20056;-75
2022/04/09 08:08:40;;;;;;;6.43;0.00;;;8.50;99.90;;;;;;5036256;28;20053;-75
2022/04/09 08:11:06;;;;;;;1.98;0.32;;;8.80;99.90;;;;;;5036190;28;20398;-75
2022/04/09 08:13:33;;;;;;;3.40;0.00;;;9.00;99.90;;;;;;5056384;28;20025;-75
2022/04/09 08:15:59;;;;;;;2.55;0.22;;;9.40;99.90;;;;;;5074246;28;20070;-75
2022/04/09 08:18:25;;;;;;;4.35;0.47;;;9.10;99.90;;;;;;5073988;28;20032;-74
2022/04/09 08:20:51;;;;;;;6.88;0.22;;;8.90;99.90;;;;;;5073917;28;20040;-75
2022/04/09 08:23:17;;;;;;;5.22;0.43;;;8.80;99.90;;;;;;5073678;28;20024;-75
2022/04/09 08:25:43;;;;;;;4.40;0.00;;;8.40;99.90;;;;;;5073617;28;20068;-75
2022/04/09 08:28:09;;;;;;;2.90;0.00;;;7.90;99.90;;;;;;5073841;28;20024;-75
2022/04/09 08:30:39;;;;;;;1.98;0.00;;;7.40;99.90;;;;;;5074205;28;20052;-75
2022/04/09 08:33:07;;;;;;;6.43;0.00;;;7.00;99.90;;;;;;5055957;28;20031;-75
2022/04/09 08:35:32;;;;;;;4.28;0.10;;;7.00;99.90;;;;;;5054303;28;20013;-75
2022/04/09 08:37:58;;;;;;;24.17;2.10;;;6.50;99.90;;;;;;5035819;28;20013;-76
2022/04/09 08:40:26;;;;;;;4.38;0.38;;;6.60;99.90;;;;;;5053919;28;20532;-75
2022/04/09 08:42:54;;;;;;;4.53;0.00;;;6.80;99.90;;;;;;5065119;28;20091;-75
2022/04/09 08:45:20;;;;;;;5.05;0.85;;;6.90;99.90;;;;;;5074416;28;20473;-75
2022/04/09 08:47:47;;;;;;;7.75;0.00;;;7.00;99.90;;;;;;5073699;28;20034;-75
2022/04/09 08:50:14;;;;;;;8.20;0.22;;;7.00;99.90;;;;;;5073937;28;20027;-75
2022/04/09 08:52:40;;;;;;;6.85;0.40;;;7.00;99.90;;;;;;5060339;28;20470;-74
2022/04/09 08:55:07;;;;;;;4.38;0.03;;;7.00;99.90;;;;;;5035675;28;20017;-75
2022/04/09 08:57:35;;;;;;;2.00;0.10;;;7.00;99.90;;;;;;5035921;28;20387;-75
2022/04/09 09:00:13;;;;;;;5.45;0.93;;;7.00;99.90;;;;;;5054362;28;20096;-73
2022/04/09 09:02:55;;;;;;;9.70;0.52;;;6.90;99.90;;;;;;5036891;28;20021;-73
2022/04/09 09:05:37;;;;;;;5.18;0.15;;;7.10;99.90;;;;;;5036464;28;20474;-73
2022/04/09 09:08:04;;;;;;;4.70;0.10;;;7.30;99.90;;;;;;5054093;28;20106;-73
2022/04/09 09:10:31;;;;;;;3.10;0.20;;;7.40;99.90;;;;;;5054502;28;20032;-73
2022/04/09 09:12:58;;;;;;;4.15;0.32;;;7.40;99.90;;;;;;5054336;28;20028;-73
2022/04/09 09:15:25;;;;;;;9.25;0.80;;;7.20;99.90;;;;;;5053927;28;20021;-73
2022/04/09 09:17:57;;;;;;;4.53;0.00;;;7.00;99.90;;;;;;5035929;28;20025;-73
2022/04/09 09:20:23;;;;;;;4.57;0.00;;;6.60;99.90;;;;;;5054200;28;20482;-73
2022/04/09 09:22:49;;;;;;;8.82;0.55;;;6.40;99.90;;;;;;5053847;28;20024;-73
2022/04/09 09:25:15;;;;;;;1.20;0.08;;;6.30;99.90;;;;;;5038215;28;20071;-73
2022/04/09 09:27:41;;;;;;;4.40;0.45;;;6.30;99.90;;;;;;5057610;28;20047;-73
2022/04/09 09:30:09;;;;;;;2.40;0.00;;;6.20;99.90;;;;;;5057496;28;20021;-73
2022/04/09 09:32:35;;;;;;;4.55;0.22;;;6.10;99.90;;;;;;5057063;28;20115;-73
2022/04/09 09:35:01;;;;;;;2.72;0.20;;;6.10;99.90;;;;;;5040537;28;20075;-73
2022/04/09 09:37:29;;;;;;;1.63;0.00;;;6.10;99.90;;;;;;5039196;28;20021;-73
2022/04/09 09:39:55;;;;;;;5.95;0.17;;;6.10;99.90;;;;;;5039119;28;20437;-73
2022/04/09 09:42:22;;;;;;;3.65;0.05;;;6.10;99.90;;;;;;5057593;28;20100;-73
2022/04/09 09:44:49;;;;;;;4.65;0.70;;;6.30;99.90;;;;;;5057059;28;20099;-74
2022/04/09 09:47:16;;;;;;;5.43;0.15;;;6.50;99.90;;;;;;5058422;28;20374;-74
2022/04/09 09:49:58;;;;;;;7.18;0.20;;;6.90;99.90;;;;;;5057288;28;20032;-73
2022/04/09 09:52:29;;;;;;;7.07;0.00;;;7.10;99.90;;;;;;5056304;28;20025;-74
2022/04/09 09:55:04;;;;;;;4.65;0.20;;;7.40;99.90;;;;;;5056619;28;20031;-74
2022/04/09 09:57:32;;;;;;;1.95;0.00;;;7.90;99.90;;;;;;5038619;28;20553;-74
2022/04/09 10:00:04;;;;;;;3.20;0.30;;;8.20;99.90;;;;;;5056445;28;20489;-74
2022/04/09 10:02:30;;;;;;;2.63;0.20;;;8.60;99.90;;;;;;5056355;28;20017;-74
2022/04/09 10:04:56;;;;;;;0.95;0.13;;;9.00;99.90;;;;;;5056399;28;20078;-74
2022/04/09 10:07:23;;;;;;;4.93;0.10;;;9.20;99.90;;;;;;5038426;28;20123;-76
2022/04/09 10:09:49;;;;;;;3.67;0.00;;;9.40;99.90;;;;;;5056350;28;20078;-75
2022/04/09 10:12:20;;;;;;;2.95;0.28;;;9.60;99.90;;;;;;5038532;28;20111;-74
2022/04/09 10:15:06;;;;;;;2.95;0.00;;;9.50;99.90;;;;;;5056243;28;20025;-73
2022/04/09 10:17:34;;;;;;;3.78;0.55;;;9.50;99.90;;;;;;5038407;28;20017;-74
2022/04/09 10:20:02;;;;;;;4.47;0.00;;;9.60;99.90;;;;;;5056042;28;20029;-74
2022/04/09 10:22:39;;;;;;;3.42;0.00;;;9.80;99.90;;;;;;5055961;28;20041;-74
2022/04/09 10:25:06;;;;;;;2.92;0.55;;;9.60;99.90;;;;;;5055926;28;20100;-74
2022/04/09 10:27:43;;;;;;;4.18;0.00;;;9.20;99.90;;;;;;5037975;28;20017;-74
2022/04/09 10:30:13;;;;;;;4.55;0.28;;;8.60;99.90;;;;;;5055849;28;20047;-74
2022/04/09 10:32:40;;;;;;;1.33;0.00;;;8.20;99.90;;;;;;5055528;28;20097;-74
2022/04/09 10:35:38;;;;;;;4.85;0.73;;;7.90;99.90;;;;;;5037361;28;20033;-74
2022/04/09 10:38:06;;;;;;;2.53;0.00;;;7.70;99.90;;;;;;5055909;28;20017;-74
2022/04/09 10:40:49;;;;;;;3.38;0.47;;;7.60;99.90;;;;;;5037930;28;20417;-74
2022/04/09 10:43:23;;;;;;;2.42;0.30;;;7.70;99.90;;;;;;5056410;28;20104;-74
2022/04/09 10:46:05;;;;;;;4.45;0.00;;;7.90;99.90;;;;;;5037854;28;20056;-74
2022/04/09 10:48:47;;;;;;;7.10;0.30;;;8.20;99.90;;;;;;5037897;28;20108;-74
2022/04/09 10:51:14;;;;;;;9.18;0.00;;;8.50;99.90;;;;;;5038413;28;20029;-74
2022/04/09 10:53:50;;;;;;;5.88;0.00;;;8.90;99.90;;;;;;5056299;28;20035;-74
2022/04/09 10:56:17;;;;;;;3.88;0.13;;;9.30;99.90;;;;;;5055744;28;20479;-74
2022/04/09 10:59:08;;;;;;;5.68;0.08;;;9.30;99.90;;;;;;5055635;28;20531;-74
2022/04/09 11:01:46;;;;;;;9.68;1.42;;;9.30;99.90;;;;;;5055757;28;20481;-74
2022/04/09 11:04:35;;;;;;;5.20;0.20;;;9.50;99.90;;;;;;5055407;28;20025;-74
2022/04/09 11:07:10;;;;;;;3.42;0.00;;;9.60;99.90;;;;;;5056482;28;20029;-74
2022/04/09 11:10:04;;;;;;;3.05;0.00;;;9.70;99.90;;;;;;5055592;28;20428;-74
2022/04/09 11:12:39;;;;;;;2.55;0.00;;;9.80;99.90;;;;;;5038242;28;20029;-74
2022/04/09 11:15:09;;;;;;;6.20;0.25;;;9.90;99.90;;;;;;5055388;28;20029;-74
2022/04/09 11:17:36;;;;;;;6.80;0.00;;;9.90;99.90;;;;;;5055428;28;20021;-74
2022/04/09 11:20:02;;;;;;;2.00;0.00;;;9.80;99.90;;;;;;5055244;28;20037;-74
2022/04/09 11:22:52;;;;;;;2.47;0.10;;;9.80;99.90;;;;;;5037280;28;20021;-74
2022/04/09 11:25:19;;;;;;;0.55;0.00;;;9.50;99.90;;;;;;5028166;28;20125;-74
2022/04/09 11:27:44;;;;;;;2.17;0.00;;;9.80;99.90;;;;;;5055530;28;20029;-74
2022/04/09 11:30:10;;;;;;;1.05;0.00;;;10.10;99.90;;;;;;5055091;28;20070;-74
2022/04/09 11:32:36;;;;;;;0.93;0.00;;;9.90;99.90;;;;;;5055336;28;20028;-74
2022/04/09 11:35:08;;;;;;;0.20;0.00;;;9.80;99.90;;;;;;5055311;28;20462;-74
2022/04/09 11:37:42;;;;;;;1.35;0.10;;;9.60;99.90;;;;;;5055317;28;20096;-74
2022/04/09 11:40:09;;;;;;;7.38;0.85;;;9.50;99.90;;;;;;5055177;28;20057;-74
2022/04/09 11:42:44;;;;;;;2.70;0.05;;;9.70;99.90;;;;;;5036523;28;20009;-74
2022/04/09 11:45:24;;;;;;;2.00;0.00;;;9.90;99.90;;;;;;5037045;28;20052;-74
2022/04/09 11:47:58;;;;;;;2.15;0.05;;;10.10;99.90;;;;;;5054062;28;20017;-74
2022/04/09 11:50:25;;;;;;;3.40;0.00;;;10.20;99.90;;;;;;5054742;28;20025;-74
2022/04/09 11:52:52;;;;;;;2.75;0.00;;;10.60;99.90;;;;;;5036647;28;20489;-74
2022/04/09 11:55:18;;;;;;;3.25;0.05;;;11.00;99.90;;;;;;5054796;28;20078;-74
2022/04/09 11:57:52;;;;;;;1.85;0.00;;;10.90;97.90;;;;;;5054374;28;20071;-74
2022/04/09 12:00:20;;;;;;;7.88;0.70;;;10.60;99.90;;;;;;5054004;28;20071;-75
2022/04/09 12:02:49;;;;;;;4.35;0.25;;;10.60;99.20;;;;;;5054476;28;20024;-75
2022/04/09 12:05:15;;;;;;;9.55;0.80;;;10.80;99.90;;;;;;5054292;28;20029;-75
2022/04/09 12:07:42;;;;;;;4.18;0.47;;;10.90;97.20;;;;;;5036369;28;20064;-74
2022/04/09 12:10:21;;;;;;;5.00;0.10;;;11.00;94.40;;;;;;5036723;28;20024;-74
2022/04/09 12:12:46;;;;;;;2.85;0.10;;;11.40;99.90;;;;;;5054087;28;20029;-74
2022/04/09 12:15:12;;;;;;;4.03;0.00;;;11.70;96.70;;;;;;5070796;28;20077;-77
2022/04/09 12:17:37;;;;;;;3.35;0.35;;;11.90;92.10;;;;;;5074209;28;20100;-77
2022/04/09 12:20:28;;;;;;;2.20;0.00;;;12.30;96.90;;;;;;5056372;28;20412;-77
2022/04/09 12:22:55;;;;;;;0.35;0.20;;;12.60;86.10;;;;;;5074082;28;20016;-77
2022/04/09 12:25:36;;;;;;;2.78;0.00;;;12.50;87.80;;;;;;5038444;28;20478;-77
2022/04/09 12:28:03;;;;;;;0.95;0.00;;;12.50;86.60;;;;;;5036340;28;20442;-77
2022/04/09 12:30:42;;;;;;;0.30;0.00;;;12.40;90.10;;;;;;5054084;28;20478;-77
2022/04/09 12:33:12;;;;;;;5.22;0.10;;;12.30;82.50;;;;;;5036233;28;20040;-77
2022/04/09 12:35:41;;;;;;;0.45;0.00;;;12.20;85.40;;;;;;5055132;28;20020;-77
2022/04/09 12:38:07;;;;;;;1.30;0.00;;;12.30;81.10;;;;;;5074079;28;20032;-77
2022/04/09 12:40:33;;;;;;;1.27;0.00;;;13.40;84.20;;;;;;5055985;28;20020;-77
2022/04/09 12:43:00;;;;;;;1.92;0.00;;;12.20;86.50;;;;;;5055731;28;20512;-77
2022/04/09 12:45:27;;;;;;;1.08;0.00;;;12.80;87.80;;;;;;5057212;28;20055;-77
2022/04/09 12:48:01;;;;;;;0.00;0.00;;;11.50;83.70;;;;;;5035747;28;20534;-77
2022/04/09 12:50:33;;;;;;;4.43;0.00;;;11.20;88.70;;;;;;5035776;28;20032;-77
2022/04/09 12:53:01;;;;;;;0.80;0.00;;;11.20;92.90;;;;;;5053947;28;20402;-77
2022/04/09 12:55:30;;;;;;;1.48;0.00;;;11.10;93.40;;;;;;5044370;28;20029;-77
2022/04/09 12:57:56;;;;;;;;;;;11.10;92.40;;;;;;5035424;28;20116;-77
2022/04/09 13:00:23;;;;;;;0.00;0.00;;;11.10;94.00;;;;;;5057307;28;20031;-77